Time;durP1;ratioP1;P1;durP2;ratioP2;P2;SDS_P1;SDS_P2;PMS_P1;PMS_P2;Temp;Humidity;BMP_temperature;BMP_pressure;BME280_temperature;BME280_humidity;BME280_pressure;Samples;Min_cycle;Max_cycle;Signal;HPM_P1;HPM_P2
2023/04/20 00:00:16;;;;;;;8.10;5.22;;;;;;;9.64;nan;-24086.28;4992877;28;20235;-72
2023/04/20 00:02:42;;;;;;;10.52;5.57;;;;;;;10.08;nan;-24098.72;4992649;28;20268;-71
2023/04/20 00:05:09;;;;;;;9.55;5.28;;;;;;;10.09;nan;-24098.84;4992522;28;20259;-70
2023/04/20 00:07:37;;;;;;;9.10;5.60;;;;;;;9.95;nan;-24095.03;4989857;28;20495;-72
2023/04/20 00:10:03;;;;;;;7.53;5.30;;;;;;;9.88;nan;-24093.06;4981723;28;20675;-70
2023/04/20 00:12:29;;;;;;;8.23;4.95;;;;;;;9.71;nan;-24088.41;4985653;28;20184;-70
2023/04/20 00:14:54;;;;;;;10.27;5.53;;;;;;;9.76;nan;-24089.81;4997706;28;20215;-71
2023/04/20 00:17:20;;;;;;;9.68;5.07;;;;;;;9.83;nan;-24091.50;4991509;28;20185;-70
2023/04/20 00:19:46;;;;;;;10.75;5.80;;;;;;;9.61;nan;-24085.44;4992390;28;20670;-72
2023/04/20 00:22:11;;;;;;;8.68;5.22;;;;;;;9.71;nan;-24088.41;4992357;28;20179;-72
2023/04/20 00:24:37;;;;;;;14.38;6.35;;;;;;;9.89;nan;-24093.34;4994482;28;20218;-71
2023/04/20 00:27:02;;;;;;;13.32;5.78;;;;;;;9.96;nan;-24095.19;4995982;28;20212;-72
2023/04/20 00:29:28;;;;;;;11.35;5.72;;;;;;;9.72;nan;-24088.53;4996152;28;20168;-71
2023/04/20 00:31:53;;;;;;;10.88;6.00;;;;;;;9.68;nan;-24087.41;4995897;28;20188;-70
2023/04/20 00:34:19;;;;;;;10.38;5.40;;;;;;;9.63;nan;-24086.13;4996120;28;20165;-72
2023/04/20 00:36:45;;;;;;;10.68;6.07;;;;;;;9.92;nan;-24094.06;4995807;28;20752;-72
2023/04/20 00:39:10;;;;;;;10.07;5.95;;;;;;;9.84;nan;-24091.78;4995994;28;20286;-73
2023/04/20 00:41:35;;;;;;;8.82;5.72;;;;;;;9.54;nan;-24083.59;4995592;28;20709;-70
2023/04/20 00:44:01;;;;;;;11.27;6.10;;;;;;;9.79;nan;-24090.38;4995960;28;20175;-71
2023/04/20 00:46:26;;;;;;;10.85;6.05;;;;;;;9.40;nan;-24079.50;4996183;28;20204;-71
2023/04/20 00:48:53;;;;;;;11.98;5.78;;;;;;;9.38;nan;-24078.94;4995685;28;20684;-70
2023/04/20 00:51:20;;;;;;;12.93;6.00;;;;;;;9.46;nan;-24081.19;4995600;28;20630;-71
2023/04/20 00:53:46;;;;;;;11.55;6.53;;;;;;;9.36;nan;-24078.50;4995462;28;20578;-71
2023/04/20 00:56:18;;;;;;;9.35;5.43;;;;;;;9.20;nan;-24074.13;4995782;28;20176;-71
2023/04/20 00:58:45;;;;;;;12.20;5.53;;;;;;;9.59;nan;-24085.00;4995866;28;20683;-71
2023/04/20 01:01:11;;;;;;;10.20;5.32;;;;;;;9.55;nan;-24083.88;4995575;28;20180;-73
2023/04/20 01:03:38;;;;;;;10.15;5.28;;;;;;;9.80;nan;-24090.81;4995496;28;20216;-71
2023/04/20 01:06:04;;;;;;;11.93;6.28;;;;;;;9.64;nan;-24086.28;4995666;28;20167;-73
2023/04/20 01:08:30;;;;;;;11.25;5.40;;;;;;;9.77;nan;-24089.94;4995352;28;20172;-72
2023/04/20 01:10:55;;;;;;;11.45;5.80;;;;;;;9.73;nan;-24088.97;4995698;28;20227;-72
2023/04/20 01:13:22;;;;;;;11.43;5.63;;;;;;;9.44;nan;-24080.63;5002708;28;20187;-69
2023/04/20 01:15:48;;;;;;;10.77;5.78;;;;;;;9.84;nan;-24091.78;4997121;28;20168;-70
2023/04/20 01:18:14;;;;;;;10.20;5.25;;;;;;;9.75;nan;-24089.53;4995425;28;20197;-73
2023/04/20 01:20:39;;;;;;;13.73;6.78;;;;;;;9.55;nan;-24083.75;4995338;28;20263;-73
2023/04/20 01:23:04;;;;;;;9.88;5.78;;;;;;;9.67;nan;-24087.28;4993610;28;20331;-72
2023/04/20 01:25:30;;;;;;;10.25;5.88;;;;;;;9.90;nan;-24093.47;4995615;28;20212;-72
2023/04/20 01:27:55;;;;;;;10.18;5.28;;;;;;;10.14;nan;-24100.41;4995335;28;20183;-71
2023/04/20 01:30:21;;;;;;;8.77;5.20;;;;;;;10.40;nan;-24107.63;4995114;28;20172;-73
2023/04/20 01:32:47;;;;;;;10.00;5.80;;;;;;;10.55;nan;-24111.84;4995013;28;20192;-73
2023/04/20 01:35:12;;;;;;;10.93;5.45;;;;;;;10.26;nan;-24103.53;4994508;28;20177;-70
2023/04/20 01:37:41;;;;;;;9.57;5.55;;;;;;;10.74;nan;-24117.06;5009847;28;20207;-71
2023/04/20 01:40:09;;;;;;;7.43;4.53;;;;;;;10.76;nan;-24117.47;4995018;28;20651;-70
2023/04/20 01:42:34;;;;;;;7.75;4.93;;;;;;;10.83;nan;-24119.59;4995140;28;20292;-70
2023/04/20 01:45:00;;;;;;;7.85;4.57;;;;;;;10.87;nan;-24120.59;4993967;28;20275;-72
2023/04/20 01:47:25;;;;;;;9.57;5.38;;;;;;;10.48;nan;-24109.72;4994859;28;20375;-72
2023/04/20 01:49:51;;;;;;;7.25;4.43;;;;;;;10.80;nan;-24118.75;4993664;28;20235;-73
2023/04/20 01:52:16;;;;;;;8.25;4.55;;;;;;;10.57;nan;-24112.25;4994859;28;20180;-71
2023/04/20 01:54:42;;;;;;;8.80;5.13;;;;;;;10.41;nan;-24107.88;4994686;28;20169;-71
2023/04/20 01:57:07;;;;;;;10.30;5.38;;;;;;;10.42;nan;-24108.03;4994428;28;20172;-73
2023/04/20 01:59:32;;;;;;;7.22;4.60;;;;;;;10.77;nan;-24117.78;4994588;28;20205;-73
2023/04/20 02:01:58;;;;;;;6.78;4.50;;;;;;;10.76;nan;-24117.47;4994427;28;20707;-72
2023/04/20 02:04:23;;;;;;;7.93;4.78;;;;;;;10.80;nan;-24118.75;4994700;28;20275;-71
2023/04/20 02:06:49;;;;;;;7.97;4.85;;;;;;;10.84;nan;-24119.75;4994136;28;20263;-71
2023/04/20 02:09:14;;;;;;;9.10;5.15;;;;;;;10.61;nan;-24113.53;4994407;28;20235;-72
2023/04/20 02:11:40;;;;;;;8.73;5.65;;;;;;;10.80;nan;-24118.75;4994714;28;20615;-70
2023/04/20 02:14:05;;;;;;;8.50;5.13;;;;;;;10.67;nan;-24114.94;5002367;28;20239;-69
2023/04/20 02:16:31;;;;;;;8.10;5.18;;;;;;;10.57;nan;-24112.25;4992840;28;20177;-71
2023/04/20 02:18:56;;;;;;;7.22;4.90;;;;;;;10.58;nan;-24112.69;4994118;28;20210;-72
2023/04/20 02:21:22;;;;;;;8.55;5.18;;;;;;;10.90;nan;-24121.56;4993563;28;20164;-72
2023/04/20 02:23:47;;;;;;;8.05;5.10;;;;;;;10.67;nan;-24114.94;4994054;28;20621;-71
2023/04/20 02:26:13;;;;;;;9.30;5.18;;;;;;;10.74;nan;-24116.91;4994798;28;20180;-72
2023/04/20 02:28:38;;;;;;;8.60;5.25;;;;;;;10.83;nan;-24119.59;4997301;28;20165;-71
2023/04/20 02:31:04;;;;;;;8.38;4.97;;;;;;;10.83;nan;-24119.47;4994545;28;20196;-70
2023/04/20 02:33:29;;;;;;;6.25;4.22;;;;;;;10.88;nan;-24120.88;4992686;28;20335;-70
2023/04/20 02:35:55;;;;;;;7.65;4.72;;;;;;;10.49;nan;-24110.16;4993417;28;20196;-71
2023/04/20 02:38:20;;;;;;;7.63;5.15;;;;;;;10.62;nan;-24113.81;4994042;28;20596;-72
2023/04/20 02:40:45;;;;;;;9.90;5.03;;;;;;;10.69;nan;-24115.50;4993658;28;20263;-72
2023/04/20 02:43:11;;;;;;;8.38;5.10;;;;;;;10.29;nan;-24104.38;4991949;28;20537;-72
2023/04/20 02:45:36;;;;;;;7.15;4.90;;;;;;;10.69;nan;-24115.50;4993496;28;20161;-70
2023/04/20 02:48:02;;;;;;;6.63;5.10;;;;;;;10.55;nan;-24111.69;4991397;28;20220;-70
2023/04/20 02:50:27;;;;;;;8.32;5.45;;;;;;;10.31;nan;-24105.06;4993352;28;20184;-71
2023/04/20 02:52:53;;;;;;;11.07;5.20;;;;;;;10.23;nan;-24102.66;4993520;28;20181;-71
2023/04/20 02:55:19;;;;;;;8.18;4.80;;;;;;;10.29;nan;-24104.38;4993695;28;20168;-69
2023/04/20 02:57:44;;;;;;;9.48;5.00;;;;;;;10.29;nan;-24104.50;4993821;28;20212;-70
2023/04/20 03:00:12;;;;;;;10.95;5.50;;;;;;;10.38;nan;-24106.91;4993739;28;20172;-69
2023/04/20 03:02:38;;;;;;;7.40;5.05;;;;;;;10.13;nan;-24099.97;4993381;28;20663;-72
2023/04/20 03:05:04;;;;;;;9.23;4.90;;;;;;;10.39;nan;-24107.31;4993238;28;20177;-70
2023/04/20 03:07:30;;;;;;;9.13;5.20;;;;;;;10.14;nan;-24100.25;4993180;28;20187;-70
2023/04/20 03:09:55;;;;;;;9.32;5.15;;;;;;;10.31;nan;-24105.06;4993380;28;20177;-72
2023/04/20 03:12:21;;;;;;;10.10;5.22;;;;;;;10.02;nan;-24096.88;4993078;28;20560;-71
2023/04/20 03:14:46;;;;;;;8.07;5.22;;;;;;;9.97;nan;-24095.59;5001754;28;20632;-74
2023/04/20 03:17:12;;;;;;;10.38;5.95;;;;;;;10.12;nan;-24099.84;4993438;28;20555;-73
2023/04/20 03:19:37;;;;;;;9.35;5.43;;;;;;;10.27;nan;-24103.94;4992973;28;20227;-71
2023/04/20 03:22:03;;;;;;;12.98;5.82;;;;;;;10.28;nan;-24104.22;4991244;28;20617;-72
2023/04/20 03:24:28;;;;;;;9.00;5.65;;;;;;;10.26;nan;-24103.66;4983895;28;20188;-72
2023/04/20 03:26:54;;;;;;;8.20;5.18;;;;;;;10.14;nan;-24100.41;4980147;28;20589;-72
2023/04/20 03:29:19;;;;;;;11.02;6.20;;;;;;;9.84;nan;-24091.94;4992599;28;20521;-72
2023/04/20 03:31:45;;;;;;;9.95;5.63;;;;;;;10.11;nan;-24099.56;5007965;28;20683;-72
2023/04/20 03:34:10;;;;;;;8.55;5.25;;;;;;;9.96;nan;-24095.19;4992848;28;20164;-73
2023/04/20 03:36:36;;;;;;;9.38;5.43;;;;;;;10.05;nan;-24097.88;4992624;28;20188;-71
2023/04/20 03:39:01;;;;;;;9.85;5.95;;;;;;;9.64;nan;-24086.44;4992811;28;20197;-71
2023/04/20 03:41:26;;;;;;;10.35;5.88;;;;;;;9.62;nan;-24085.72;4992982;28;20633;-71
2023/04/20 03:43:52;;;;;;;9.98;6.18;;;;;;;10.07;nan;-24098.28;4992736;28;20688;-70
2023/04/20 03:46:17;;;;;;;10.52;6.00;;;;;;;10.16;nan;-24100.84;4992866;28;20235;-72
2023/04/20 03:48:43;;;;;;;10.88;6.65;;;;;;;10.26;nan;-24103.66;4992743;28;20307;-73
2023/04/20 03:51:08;;;;;;;8.73;5.07;;;;;;;10.30;nan;-24104.78;4992515;28;20180;-72
2023/04/20 03:53:34;;;;;;;11.60;6.13;;;;;;;10.22;nan;-24102.53;5007891;28;20200;-72
2023/04/20 03:55:59;;;;;;;10.73;6.53;;;;;;;11.11;nan;-24127.34;4992373;28;20207;-71
2023/04/20 03:58:25;;;;;;;10.27;5.93;;;;;;;11.69;nan;-24143.41;4992099;28;20287;-71
2023/04/20 04:00:50;;;;;;;8.68;5.63;;;;;;;11.87;nan;-24148.50;4992261;28;20175;-72
2023/04/20 04:03:16;;;;;;;9.98;5.90;;;;;;;11.59;nan;-24140.59;4992446;28;20264;-72
2023/04/20 04:05:41;;;;;;;10.60;5.32;;;;;;;11.22;nan;-24130.31;4992329;28;20636;-71
2023/04/20 04:08:06;;;;;;;10.25;5.75;;;;;;;11.38;nan;-24134.97;4992735;28;20276;-70
2023/04/20 04:10:34;;;;;;;8.35;5.03;;;;;;;10.85;nan;-24120.03;4991334;28;20267;-72
2023/04/20 04:13:00;;;;;;;9.88;5.25;;;;;;;10.79;nan;-24118.34;4992613;28;20201;-70
2023/04/20 04:15:25;;;;;;;6.93;4.78;;;;;;;11.11;nan;-24127.22;5000853;28;20181;-73
2023/04/20 04:18:07;;;;;;;7.65;5.53;;;;;;;12.38;nan;-24162.84;4991891;28;20279;-72
2023/04/20 04:21:20;;;;;;;7.70;5.00;;;;;;;13.07;nan;-24181.84;4991365;28;20160;-72
2023/04/20 04:27:08;;;;;;;8.55;4.25;;;;;;;13.09;nan;-24182.53;4970637;28;20228;-70
2023/04/20 04:29:37;;;;;;;6.80;4.40;;;;;;;12.78;nan;-24173.81;4986270;28;20173;-71
2023/04/20 04:32:04;;;;;;;7.28;4.72;;;;;;;13.11;nan;-24183.09;4991862;28;20656;-70
2023/04/20 04:34:30;;;;;;;7.93;5.15;;;;;;;13.36;nan;-24189.84;4992169;28;20165;-72
2023/04/20 04:36:56;;;;;;;7.82;5.07;;;;;;;13.68;nan;-24198.97;4984951;28;20193;-73
2023/04/20 04:39:21;;;;;;;7.90;4.68;;;;;;;13.61;nan;-24197.00;4983173;28;20205;-70
2023/04/20 04:41:46;;;;;;;7.80;5.20;;;;;;;13.22;nan;-24186.19;4977065;28;20261;-71
2023/04/20 04:44:12;;;;;;;9.52;5.40;;;;;;;13.10;nan;-24182.69;4990944;28;20723;-71
2023/04/20 04:46:37;;;;;;;9.00;5.35;;;;;;;12.92;nan;-24177.63;4980839;28;20629;-72
2023/04/20 04:49:04;;;;;;;9.00;5.07;;;;;;;12.24;nan;-24158.78;4983431;28;20176;-71
2023/04/20 04:51:30;;;;;;;7.80;5.55;;;;;;;12.39;nan;-24163.13;4976682;28;20299;-71
2023/04/20 04:53:55;;;;;;;10.57;5.20;;;;;;;11.95;nan;-24150.88;4983282;28;20740;-70
2023/04/20 04:56:22;;;;;;;7.65;5.38;;;;;;;12.06;nan;-24153.69;4979122;28;20557;-70
2023/04/20 04:58:47;;;;;;;8.65;5.35;;;;;;;11.97;nan;-24151.31;4981773;28;20212;-71
2023/04/20 05:01:13;;;;;;;12.40;5.15;;;;;;;12.13;nan;-24155.81;4995147;28;20186;-73
2023/04/20 05:03:38;;;;;;;8.88;5.68;;;;;;;12.32;nan;-24161.16;4981027;28;20181;-72
2023/04/20 05:06:04;;;;;;;8.88;5.88;;;;;;;12.26;nan;-24159.47;4978472;28;20189;-72
2023/04/20 05:08:30;;;;;;;10.60;5.50;;;;;;;12.12;nan;-24155.53;4983330;28;20183;-73
2023/04/20 05:10:56;;;;;;;9.07;5.55;;;;;;;12.02;nan;-24152.72;4984909;28;20591;-72
2023/04/20 05:13:21;;;;;;;8.02;5.50;;;;;;;12.30;nan;-24160.59;4986371;28;20280;-70
2023/04/20 05:15:47;;;;;;;9.98;5.93;;;;;;;12.19;nan;-24157.38;4991884;28;20275;-73
2023/04/20 05:18:12;;;;;;;10.45;5.53;;;;;;;12.38;nan;-24162.72;4994779;28;20192;-71
2023/04/20 05:20:37;;;;;;;9.18;5.32;;;;;;;12.73;nan;-24172.41;4994599;28;20555;-73
2023/04/20 05:23:03;;;;;;;11.80;5.65;;;;;;;12.90;nan;-24177.19;4994920;28;20185;-74
2023/04/20 05:25:29;;;;;;;7.90;4.88;;;;;;;13.16;nan;-24184.50;4994815;28;20232;-72
2023/04/20 05:27:54;;;;;;;9.05;5.35;;;;;;;12.95;nan;-24178.59;4994865;28;20173;-73
2023/04/20 05:30:20;;;;;;;7.43;4.85;;;;;;;12.98;nan;-24179.31;4994770;28;20252;-73
2023/04/20 05:32:45;;;;;;;8.30;4.95;;;;;;;12.99;nan;-24179.59;4994578;28;20181;-69
2023/04/20 05:35:10;;;;;;;7.10;4.47;;;;;;;12.98;nan;-24179.31;4994077;28;20211;-73
2023/04/20 05:37:36;;;;;;;12.40;5.57;;;;;;;13.18;nan;-24185.06;4993872;28;20263;-71
2023/04/20 05:40:01;;;;;;;7.00;4.75;;;;;;;13.05;nan;-24181.41;4994122;28;20173;-71
2023/04/20 05:42:27;;;;;;;7.18;4.43;;;;;;;13.55;nan;-24195.31;4994510;28;20323;-74
2023/04/20 05:44:52;;;;;;;7.03;4.63;;;;;;;13.44;nan;-24192.25;4995663;28;20259;-72
2023/04/20 05:47:17;;;;;;;9.20;4.30;;;;;;;13.75;nan;-24200.81;4999052;28;20236;-70
2023/04/20 05:49:44;;;;;;;8.43;4.20;;;;;;;13.97;nan;-24206.84;4995783;28;20179;-72
2023/04/20 05:52:10;;;;;;;11.05;4.40;;;;;;;13.72;nan;-24199.97;4994221;28;20184;-71
2023/04/20 05:54:35;;;;;;;7.60;4.50;;;;;;;14.08;nan;-24209.91;4994231;28;20625;-71
2023/04/20 05:57:01;;;;;;;7.28;4.25;;;;;;;13.96;nan;-24206.69;4994344;28;20263;-73
2023/04/20 05:59:26;;;;;;;7.72;4.35;;;;;;;13.72;nan;-24199.97;4993752;28;20197;-73
2023/04/20 06:01:52;;;;;;;6.85;4.20;;;;;;;14.35;nan;-24217.34;4993881;28;20638;-74
2023/04/20 06:04:17;;;;;;;6.15;4.00;;;;;;;14.05;nan;-24209.09;4993691;28;20172;-71
2023/04/20 06:06:43;;;;;;;7.35;4.20;;;;;;;14.08;nan;-24209.91;4992872;28;20185;-73
2023/04/20 06:09:08;;;;;;;8.20;4.70;;;;;;;14.22;nan;-24213.72;4994208;28;20669;-75
2023/04/20 06:11:34;;;;;;;11.57;4.88;;;;;;;13.98;nan;-24207.25;4994136;28;20577;-74
2023/04/20 06:13:59;;;;;;;8.60;4.50;;;;;;;14.04;nan;-24208.81;5001403;28;20177;-71
2023/04/20 06:16:25;;;;;;;8.07;4.38;;;;;;;14.62;nan;-24224.94;4994547;28;20189;-71
2023/04/20 06:18:51;;;;;;;8.32;5.00;;;;;;;14.53;nan;-24222.41;4993348;28;20580;-72
2023/04/20 06:21:16;;;;;;;8.68;4.80;;;;;;;14.69;nan;-24226.91;4993413;28;20165;-74
2023/04/20 06:23:43;;;;;;;7.03;4.63;;;;;;;14.73;nan;-24227.88;4993244;28;20570;-74
2023/04/20 06:26:09;;;;;;;8.55;4.75;;;;;;;14.70;nan;-24227.03;4993695;28;20165;-73
2023/04/20 06:28:36;;;;;;;7.95;4.53;;;;;;;14.62;nan;-24224.78;4992139;28;20630;-75
2023/04/20 06:31:04;;;;;;;8.13;4.75;;;;;;;14.49;nan;-24221.44;4993085;28;20177;-76
2023/04/20 06:33:30;;;;;;;7.38;4.30;;;;;;;14.74;nan;-24228.16;4992535;28;20235;-68
2023/04/20 06:35:56;;;;;;;7.20;4.45;;;;;;;14.96;nan;-24234.31;4992270;28;20173;-68
2023/04/20 06:38:22;;;;;;;7.95;4.60;;;;;;;14.86;nan;-24231.53;4993733;28;20673;-68
2023/04/20 06:40:48;;;;;;;5.50;3.60;;;;;;;15.48;nan;-24248.75;4993679;28;20184;-66
2023/04/20 06:43:13;;;;;;;6.75;4.15;;;;;;;15.54;nan;-24250.44;4993387;28;20177;-67
2023/04/20 06:45:39;;;;;;;7.57;4.45;;;;;;;15.66;nan;-24253.66;4993363;28;20671;-67
2023/04/20 06:48:05;;;;;;;7.93;4.72;;;;;;;15.52;nan;-24249.88;4993335;28;20584;-67
2023/04/20 06:50:30;;;;;;;6.53;3.85;;;;;;;16.01;nan;-24263.31;4993659;28;20530;-66
2023/04/20 06:52:56;;;;;;;8.48;4.78;;;;;;;15.95;nan;-24261.78;4992818;28;20588;-66
2023/04/20 06:55:21;;;;;;;9.23;4.78;;;;;;;15.88;nan;-24259.94;4993575;28;20169;-67
2023/04/20 06:57:47;;;;;;;7.28;4.28;;;;;;;15.78;nan;-24257.00;4993521;28;20664;-67
2023/04/20 07:00:13;;;;;;;8.55;4.65;;;;;;;15.89;nan;-24260.22;4993430;28;20172;-66
2023/04/20 07:02:48;;;;;;;8.23;4.55;;;;;;;16.02;nan;-24263.72;4992826;28;20173;-67
2023/04/20 07:05:14;;;;;;;10.60;4.47;;;;;;;16.16;nan;-24267.66;4993114;28;20541;-67
2023/04/20 07:07:41;;;;;;;7.70;4.07;;;;;;;15.99;nan;-24262.75;4993146;28;20222;-67
2023/04/20 07:10:08;;;;;;;7.07;4.22;;;;;;;15.68;nan;-24254.34;4993256;28;20251;-68
2023/04/20 07:12:35;;;;;;;5.90;4.28;;;;;;;15.73;nan;-24255.75;4993361;28;20655;-66
2023/04/20 07:15:02;;;;;;;8.65;4.72;;;;;;;15.88;nan;-24259.94;4997438;28;20197;-67
2023/04/20 07:17:28;;;;;;;8.93;4.90;;;;;;;16.21;nan;-24268.91;4992956;28;20188;-66
2023/04/20 07:19:55;;;;;;;7.85;4.63;;;;;;;15.99;nan;-24262.88;4993073;28;20177;-67
2023/04/20 07:22:21;;;;;;;6.65;3.95;;;;;;;15.94;nan;-24261.34;4992920;28;20177;-67
2023/04/20 07:24:46;;;;;;;7.03;4.65;;;;;;;16.09;nan;-24265.56;4993164;28;20179;-68
2023/04/20 07:27:11;;;;;;;6.10;4.20;;;;;;;15.96;nan;-24262.06;4993011;28;20168;-67
2023/04/20 07:29:37;;;;;;;6.90;4.22;;;;;;;16.43;nan;-24275.06;4992778;28;20195;-67
2023/04/20 07:32:02;;;;;;;8.25;4.72;;;;;;;16.20;nan;-24268.75;4992596;28;20680;-67
2023/04/20 07:34:28;;;;;;;6.65;4.25;;;;;;;16.13;nan;-24266.66;4992892;28;20172;-67
2023/04/20 07:36:53;;;;;;;8.07;4.88;;;;;;;16.21;nan;59429.75;4991917;28;20235;-67
2023/04/20 07:39:18;;;;;;;8.25;5.40;;;;;;;16.27;nan;59292.06;4992497;28;20204;-67
2023/04/20 07:41:44;;;;;;;7.65;4.90;;;;;;;16.22;nan;59191.81;4992511;28;20173;-67
2023/04/20 07:44:12;;;;;;;7.60;4.90;;;;;;;16.22;nan;59099.09;4992712;28;20161;-67
2023/04/20 07:46:37;;;;;;;12.02;5.65;;;;;;;16.35;nan;58420.28;4992697;28;20263;-68
2023/04/20 07:49:02;;;;;;;7.88;5.15;;;;;;;16.12;nan;59288.50;4992570;28;20220;-67
2023/04/20 07:51:29;;;;;;;7.68;4.68;;;;;;;16.33;nan;59105.94;4992545;28;20664;-66
2023/04/20 07:53:55;;;;;;;6.70;4.40;;;;;;;16.05;nan;58784.34;4990897;28;20601;-67
2023/04/20 07:56:20;;;;;;;8.30;4.95;;;;;;;16.18;nan;59047.81;4992014;28;20180;-67
2023/04/20 07:58:45;;;;;;;9.63;4.97;;;;;;;16.42;nan;58780.28;4991958;28;20200;-67
2023/04/20 08:01:11;;;;;;;14.73;4.93;;;;;;;16.38;nan;58904.75;4992025;28;20664;-67
2023/04/20 08:03:36;;;;;;;6.75;4.60;;;;;;;16.28;nan;58945.38;4992427;28;20172;-67
2023/04/20 08:06:02;;;;;;;7.70;4.82;;;;;;;16.60;nan;59106.59;4992466;28;20203;-66
2023/04/20 08:08:28;;;;;;;8.85;4.90;;;;;;;16.62;nan;59093.31;4992642;28;20172;-67
2023/04/20 08:10:56;;;;;;;7.38;4.30;;;;;;;16.89;nan;59178.47;4992573;28;20208;-66
2023/04/20 08:13:21;;;;;;;6.57;4.50;;;;;;;16.69;nan;58956.59;4992444;28;20608;-67
2023/04/20 08:15:47;;;;;;;6.57;4.38;;;;;;;16.50;nan;59358.53;4995673;28;20184;-66
2023/04/20 08:18:12;;;;;;;8.10;5.05;;;;;;;16.77;nan;59248.94;4992419;28;20605;-67
2023/04/20 08:20:37;;;;;;;7.68;4.63;;;;;;;16.92;nan;59279.75;4992464;28;20176;-68
2023/04/20 08:23:03;;;;;;;8.35;4.65;;;;;;;16.66;nan;59630.78;4990848;28;20191;-66
2023/04/20 08:25:28;;;;;;;16.08;4.78;;;;;;;16.71;nan;58786.09;4992184;28;20260;-67
2023/04/20 08:27:54;;;;;;;7.00;4.70;;;;;;;16.79;nan;59588.91;4992399;28;20562;-67
2023/04/20 08:30:19;;;;;;;8.60;4.90;;;;;;;16.97;nan;59481.78;4990742;28;20181;-67
2023/04/20 08:32:44;;;;;;;8.85;4.82;;;;;;;17.23;nan;59569.75;4992252;28;20205;-66
2023/04/20 08:35:10;;;;;;;8.52;5.05;;;;;;;17.24;nan;59745.78;4991891;28;20200;-67
2023/04/20 08:37:36;;;;;;;7.85;4.65;;;;;;;17.05;nan;59828.00;4991973;28;20675;-67
2023/04/20 08:40:02;;;;;;;9.40;5.35;;;;;;;17.27;nan;60022.09;4992209;28;20173;-67
2023/04/20 08:42:27;;;;;;;7.60;4.60;;;;;;;16.85;nan;60195.91;4991862;28;20176;-66
2023/04/20 08:44:53;;;;;;;6.80;4.40;;;;;;;16.98;nan;60151.03;4992720;28;20197;-67
2023/04/20 08:47:20;;;;;;;6.35;4.15;;;;;;;17.43;nan;60563.97;4996152;28;20224;-67
2023/04/20 08:49:48;;;;;;;6.68;4.22;;;;;;;17.43;nan;60685.84;4996108;28;20181;-66
2023/04/20 08:52:14;;;;;;;7.53;4.65;;;;;;;17.71;nan;60448.00;4996206;28;20195;-66
2023/04/20 08:54:39;;;;;;;7.43;4.47;;;;;;;18.01;nan;60820.03;4995752;28;20558;-66
2023/04/20 08:57:05;;;;;;;7.50;4.65;;;;;;;18.21;nan;60653.16;4995742;28;20715;-67
2023/04/20 08:59:30;;;;;;;8.13;5.00;;;;;;;18.30;nan;60702.03;4995142;28;20192;-66
2023/04/20 09:02:07;;;;;;;8.10;4.85;;;;;;;18.38;nan;60648.34;4995831;28;20188;-67
2023/04/20 09:04:33;;;;;;;8.07;5.10;;;;;;;18.71;nan;60927.94;4996193;28;20157;-66
2023/04/20 09:06:58;;;;;;;9.88;5.38;;;;;;;18.87;nan;61003.38;4995757;28;20181;-67
2023/04/20 09:09:24;;;;;;;7.50;4.82;;;;;;;18.84;nan;61300.28;4994199;28;20168;-66
2023/04/20 09:12:01;;;;;;;7.22;4.70;;;;;;;18.74;nan;61294.16;4995389;28;20256;-66
2023/04/20 09:14:26;;;;;;;7.78;4.32;;;;;;;18.56;nan;61232.47;4995944;28;20172;-68
2023/04/20 09:17:00;;;;;;;7.25;4.50;;;;;;;18.73;nan;61251.06;5000072;28;20260;-67
2023/04/20 09:19:28;;;;;;;9.32;5.07;;;;;;;18.77;nan;61258.19;4995584;28;20565;-66
2023/04/20 09:21:56;;;;;;;10.45;4.95;;;;;;;18.77;nan;61217.34;4995281;28;20181;-66
2023/04/20 09:24:28;;;;;;;7.97;4.85;;;;;;;18.91;nan;61354.22;4995135;28;20244;-67
2023/04/20 09:26:55;;;;;;;8.15;4.55;;;;;;;18.73;nan;61295.63;4995624;28;20223;-66
2023/04/20 09:29:24;;;;;;;7.63;4.30;;;;;;;19.21;nan;61341.47;4994977;28;20169;-66
2023/04/20 09:31:50;;;;;;;6.82;4.07;;;;;;;19.03;nan;61442.84;4994077;28;20613;-67
2023/04/20 09:34:16;;;;;;;8.10;4.75;;;;;;;18.83;nan;61430.59;4993837;28;20203;-66
2023/04/20 09:36:43;;;;;;;7.07;4.72;;;;;;;18.86;nan;61382.22;4994531;28;20256;-67
2023/04/20 09:39:11;;;;;;;9.55;4.10;;;;;;;18.63;nan;61413.75;4994063;28;20196;-67
2023/04/20 09:41:38;;;;;;;7.78;4.40;;;;;;;18.82;nan;61424.31;4994408;28;20180;-69
2023/04/20 09:44:05;;;;;;;9.85;4.70;;;;;;;18.63;nan;61428.69;4994225;28;20192;-67
2023/04/20 09:46:33;;;;;;;7.38;4.60;;;;;;;18.88;nan;61425.91;4994591;28;20165;-68
2023/04/20 09:49:01;;;;;;;6.72;4.68;;;;;;;18.87;nan;61507.59;4993771;28;20224;-67
2023/04/20 09:51:27;;;;;;;7.97;4.63;;;;;;;18.99;nan;61554.84;4993937;28;20160;-67
2023/04/20 09:53:56;;;;;;;7.22;4.25;;;;;;;18.92;nan;61510.66;4994035;28;20171;-67
2023/04/20 09:56:22;;;;;;;7.07;4.38;;;;;;;18.93;nan;61574.50;4993623;28;20251;-67
2023/04/20 09:58:49;;;;;;;6.93;4.07;;;;;;;19.56;nan;61607.97;4993682;28;20610;-68
2023/04/20 10:01:14;;;;;;;6.95;4.55;;;;;;;19.71;nan;61637.91;4994290;28;20176;-66
2023/04/20 10:03:41;;;;;;;6.97;4.20;;;;;;;19.72;nan;61652.00;4993848;28;20571;-67
2023/04/20 10:06:17;;;;;;;6.55;4.05;;;;;;;20.16;nan;61717.47;4993192;28;20181;-66
2023/04/20 10:08:43;;;;;;;6.55;4.28;;;;;;;20.57;nan;61771.25;4994023;28;20553;-66
2023/04/20 10:11:08;;;;;;;5.68;4.00;;;;;;;20.41;nan;61822.59;4993812;28;20176;-67
2023/04/20 10:13:34;;;;;;;5.32;3.72;;;;;;;20.27;nan;61770.91;4994274;28;20241;-67
2023/04/20 10:15:59;;;;;;;7.18;4.40;;;;;;;20.66;nan;61794.47;4997529;28;20177;-66
2023/04/20 10:18:25;;;;;;;6.85;4.22;;;;;;;20.39;nan;61776.22;4994113;28;20203;-67
2023/04/20 10:21:02;;;;;;;6.65;4.10;;;;;;;20.46;nan;61818.47;4994436;28;20698;-67
2023/04/20 10:23:28;;;;;;;5.28;3.90;;;;;;;20.68;nan;61791.53;4993797;28;20286;-67
2023/04/20 10:25:59;;;;;;;7.95;4.63;;;;;;;20.20;nan;61763.53;4992489;28;20715;-66
2023/04/20 10:28:25;;;;;;;5.75;4.25;;;;;;;20.51;nan;61782.59;4994075;28;20539;-66
2023/04/20 10:30:52;;;;;;;5.53;4.03;;;;;;;20.82;nan;61824.47;4993676;28;20636;-67
2023/04/20 10:33:18;;;;;;;7.45;4.35;;;;;;;20.12;nan;61751.84;4993469;28;20173;-67
2023/04/20 10:35:47;;;;;;;6.22;3.83;;;;;;;20.59;nan;62006.59;4993757;28;20263;-66
2023/04/20 10:38:15;;;;;;;8.50;4.65;;;;;;;21.08;nan;61841.03;4993792;28;20189;-68
2023/04/20 10:40:40;;;;;;;7.35;3.88;;;;;;;20.87;nan;61845.72;4993649;28;20192;-67
2023/04/20 10:43:26;;;;;;;7.70;4.00;;;;;;;21.27;nan;61919.25;4993457;28;20176;-66
2023/04/20 10:45:52;;;;;;;6.40;4.18;;;;;;;21.13;nan;61872.72;4991886;28;20219;-67
2023/04/20 10:48:17;;;;;;;6.13;4.07;;;;;;;21.37;nan;61917.59;4991833;28;20319;-66
2023/04/20 10:50:43;;;;;;;5.78;4.10;;;;;;;21.48;nan;62125.13;4993226;28;20165;-65
2023/04/20 10:53:22;;;;;;;6.13;4.10;;;;;;;20.78;nan;61864.63;4993107;28;20211;-66
2023/04/20 10:55:57;;;;;;;6.80;4.25;;;;;;;20.11;nan;61789.63;4993064;28;20169;-67
2023/04/20 10:58:24;;;;;;;6.68;4.13;;;;;;;19.65;nan;61743.13;4992922;28;20211;-67
2023/04/20 11:00:59;;;;;;;6.43;4.00;;;;;;;19.65;nan;61748.31;4992945;28;20172;-66
2023/04/20 11:03:27;;;;;;;7.72;4.90;;;;;;;18.79;nan;61579.34;4992824;28;20176;-65
2023/04/20 11:05:53;;;;;;;6.95;4.97;;;;;;;16.16;nan;60589.31;4992943;28;20176;-64
2023/04/20 11:08:18;;;;;;;11.52;5.60;;;;;;;14.98;nan;55093.44;4992239;28;20188;-62
2023/04/20 11:10:44;;;;;;;9.40;5.45;;;;;;;14.52;nan;57338.19;4992644;28;20249;-63
2023/04/20 11:13:21;;;;;;;12.07;5.88;;;;;;;14.50;nan;51813.44;4992764;28;20193;-64
2023/04/20 11:15:47;;;;;;;11.18;6.35;;;;;;;14.43;nan;-13620.78;4992818;28;20606;-64
2023/04/20 11:18:13;;;;;;;10.85;6.60;;;;;;;14.56;nan;-19086.66;4993039;28;20205;-65
2023/04/20 11:20:53;;;;;;;10.40;6.45;;;;;;;14.63;nan;12867.63;4992611;28;20234;-63
2023/04/20 11:23:23;;;;;;;14.43;5.68;;;;;;;14.71;nan;59956.00;4992475;28;20176;-63
2023/04/20 11:25:53;;;;;;;8.68;5.88;;;;;;;14.93;nan;59144.31;4992505;28;20173;-62
2023/04/20 11:28:18;;;;;;;9.48;5.57;;;;;;;15.31;nan;59960.22;4992470;28;20173;-64
2023/04/20 11:30:44;;;;;;;7.03;4.88;;;;;;;15.40;nan;60104.00;4992383;28;20231;-64
2023/04/20 11:33:10;;;;;;;10.38;5.82;;;;;;;15.43;nan;59608.13;4992382;28;20165;-64
2023/04/20 11:35:37;;;;;;;10.70;5.88;;;;;;;15.63;nan;59922.53;4992215;28;20173;-64
2023/04/20 11:38:03;;;;;;;8.75;5.43;;;;;;;15.77;nan;60242.41;4991502;28;20208;-63
2023/04/20 11:40:29;;;;;;;9.02;5.32;;;;;;;15.87;nan;60472.44;4990627;28;20186;-63
2023/04/20 11:42:54;;;;;;;8.35;5.63;;;;;;;15.73;nan;60577.84;4991931;28;20177;-63